< < Back
Terminal Aerodrome Forecast


Current Version              Previous Versions:   1  2  3  4  5  6  7  8  9  

Terminal Aerodrome Forecast

415
FTUS42 KTAE 200500
TAFDHN
TAF
KDHN 200539Z 2006/2106 35005KT 6SM -RA BKN025 OVC050
      TEMPO 2008/2012 BKN008
     FM201200 05007KT P6SM OVC008
     FM201600 04006KT P6SM BKN025 OVC070
     FM210100 04004KT P6SM OVC020=

Latest METAR

071
SAUS70 KWBC 200500 RRK
MTRDHN
METAR KDHN 200453Z AUTO 35004KT 5SM -RA BR FEW030 OVC041 08/07 A3019 RMK
AO2 SLP223 P0006 T00830072


USA.gov is the U.S. government's official web portal to all federal, state and local government web resources and services.